North Battleford Airport

CYQW | YQW

North Battleford , Saskatchewan , Canada

Wednesday, October 23rd, 2019 | 22:52

Weather

CYQW 240431Z AUTO 28005KT 9SM FEW009 SCT020 BKN040 OVC055 M00/M01 A3030 RMK SLP293

Charts

No Charts Available

Gates

No Gates Available

Runways

2 Available

Events

No events for this airport


New event